sensor_id;sensor_type;location;lat;lon;timestamp;pressure;altitude;pressure_sealevel;temperature;humidity
42297;BME280;72430;47.456;19.016;2023-11-18T00:01:17;100245.50;;;4.96;68.01
42297;BME280;72430;47.456;19.016;2023-11-18T00:04:19;100246.88;;;4.89;68.42
42297;BME280;72430;47.456;19.016;2023-11-18T00:07:21;100256.69;;;4.88;68.14
42297;BME280;72430;47.456;19.016;2023-11-18T00:10:23;100261.91;;;4.90;67.35
42297;BME280;72430;47.456;19.016;2023-11-18T00:13:25;100259.47;;;5.00;67.33
42297;BME280;72430;47.456;19.016;2023-11-18T00:16:30;100253.28;;;4.99;66.56
42297;BME280;72430;47.456;19.016;2023-11-18T00:19:33;100272.19;;;4.96;67.72
42297;BME280;72430;47.456;19.016;2023-11-18T00:22:36;100277.19;;;5.01;67.65
42297;BME280;72430;47.456;19.016;2023-11-18T00:25:38;100273.66;;;4.87;67.63
42297;BME280;72430;47.456;19.016;2023-11-18T00:28:42;100268.09;;;4.90;68.24
42297;BME280;72430;47.456;19.016;2023-11-18T00:31:43;100267.66;;;4.83;67.29
42297;BME280;72430;47.456;19.016;2023-11-18T00:34:45;100271.53;;;4.92;67.25
42297;BME280;72430;47.456;19.016;2023-11-18T00:37:47;100283.72;;;4.96;67.22
42297;BME280;72430;47.456;19.016;2023-11-18T00:40:49;100263.31;;;4.95;66.67
42297;BME280;72430;47.456;19.016;2023-11-18T00:43:51;100301.53;;;4.96;67.81
42297;BME280;72430;47.456;19.016;2023-11-18T00:46:55;100285.41;;;4.97;67.60
42297;BME280;72430;47.456;19.016;2023-11-18T00:49:59;100285.59;;;4.94;66.86
42297;BME280;72430;47.456;19.016;2023-11-18T00:53:03;100289.97;;;4.95;67.89
42297;BME280;72430;47.456;19.016;2023-11-18T00:56:07;100284.97;;;4.91;67.37
42297;BME280;72430;47.456;19.016;2023-11-18T00:59:11;100279.19;;;4.84;67.63
42297;BME280;72430;47.456;19.016;2023-11-18T01:02:13;100276.00;;;4.79;66.72
42297;BME280;72430;47.456;19.016;2023-11-18T01:05:15;100280.91;;;4.85;66.54
42297;BME280;72430;47.456;19.016;2023-11-18T01:08:17;100279.84;;;5.01;66.11
42297;BME280;72430;47.456;19.016;2023-11-18T01:11:19;100303.09;;;4.86;67.85
42297;BME280;72430;47.456;19.016;2023-11-18T01:14:21;100295.72;;;4.89;66.04
42297;BME280;72430;47.456;19.016;2023-11-18T01:17:24;100311.38;;;5.08;66.44
42297;BME280;72430;47.456;19.016;2023-11-18T01:20:27;100305.56;;;4.89;66.82
42297;BME280;72430;47.456;19.016;2023-11-18T01:23:28;100312.19;;;4.96;65.98
42297;BME280;72430;47.456;19.016;2023-11-18T01:26:30;100308.00;;;4.92;66.84
42297;BME280;72430;47.456;19.016;2023-11-18T01:29:32;100318.78;;;4.90;67.23
42297;BME280;72430;47.456;19.016;2023-11-18T01:32:35;100318.78;;;4.90;67.16
42297;BME280;72430;47.456;19.016;2023-11-18T01:35:37;100316.66;;;4.82;67.22
42297;BME280;72430;47.456;19.016;2023-11-18T01:38:40;100332.94;;;4.78;66.50
42297;BME280;72430;47.456;19.016;2023-11-18T01:41:42;100326.03;;;4.88;66.72
42297;BME280;72430;47.456;19.016;2023-11-18T01:44:44;100324.66;;;4.82;66.37
42297;BME280;72430;47.456;19.016;2023-11-18T01:47:46;100337.75;;;4.86;66.66
42297;BME280;72430;47.456;19.016;2023-11-18T01:50:50;100335.97;;;4.86;67.70
42297;BME280;72430;47.456;19.016;2023-11-18T01:53:54;100327.97;;;4.86;66.00
42297;BME280;72430;47.456;19.016;2023-11-18T01:56:57;100341.16;;;4.75;66.83
42297;BME280;72430;47.456;19.016;2023-11-18T01:59:59;100339.03;;;4.80;66.65
42297;BME280;72430;47.456;19.016;2023-11-18T02:03:01;100344.97;;;4.70;67.07
42297;BME280;72430;47.456;19.016;2023-11-18T02:06:04;100356.94;;;4.78;66.66
42297;BME280;72430;47.456;19.016;2023-11-18T02:09:07;100352.66;;;4.75;66.76
42297;BME280;72430;47.456;19.016;2023-11-18T02:15:20;100355.06;;;4.65;67.55
42297;BME280;72430;47.456;19.016;2023-11-18T02:18:27;100369.84;;;4.71;66.31
42297;BME280;72430;47.456;19.016;2023-11-18T02:21:32;100362.25;;;4.78;66.24
42297;BME280;72430;47.456;19.016;2023-11-18T02:24:35;100359.16;;;4.71;67.28
42297;BME280;72430;47.456;19.016;2023-11-18T02:27:42;100355.63;;;4.70;66.58
42297;BME280;72430;47.456;19.016;2023-11-18T02:30:45;100358.59;;;4.66;67.86
42297;BME280;72430;47.456;19.016;2023-11-18T02:34:11;100358.13;;;4.74;67.38
42297;BME280;72430;47.456;19.016;2023-11-18T02:37:17;100370.00;;;4.82;65.95
42297;BME280;72430;47.456;19.016;2023-11-18T02:40:26;100376.66;;;4.75;67.83
42297;BME280;72430;47.456;19.016;2023-11-18T02:43:33;100381.34;;;4.72;67.12
42297;BME280;72430;47.456;19.016;2023-11-18T02:46:38;100376.50;;;4.64;68.63
42297;BME280;72430;47.456;19.016;2023-11-18T02:49:41;100375.66;;;4.63;67.88
42297;BME280;72430;47.456;19.016;2023-11-18T02:52:43;100370.41;;;4.76;68.10
42297;BME280;72430;47.456;19.016;2023-11-18T02:55:46;100368.63;;;4.90;68.45
42297;BME280;72430;47.456;19.016;2023-11-18T02:58:48;100372.50;;;4.71;68.67
42297;BME280;72430;47.456;19.016;2023-11-18T03:01:53;100368.97;;;4.70;69.21
42297;BME280;72430;47.456;19.016;2023-11-18T03:04:57;100371.31;;;4.75;68.40
42297;BME280;72430;47.456;19.016;2023-11-18T03:07:59;100383.09;;;4.86;67.97
42297;BME280;72430;47.456;19.016;2023-11-18T03:11:01;100387.03;;;4.80;69.25
42297;BME280;72430;47.456;19.016;2023-11-18T03:14:06;100383.00;;;4.60;69.20
42297;BME280;72430;47.456;19.016;2023-11-18T03:17:11;100384.66;;;4.75;69.03
42297;BME280;72430;47.456;19.016;2023-11-18T03:20:13;100391.41;;;4.81;69.14
42297;BME280;72430;47.456;19.016;2023-11-18T03:23:18;100400.06;;;4.84;69.29
42297;BME280;72430;47.456;19.016;2023-11-18T03:26:20;100404.53;;;4.84;70.18
42297;BME280;72430;47.456;19.016;2023-11-18T03:29:23;100399.50;;;4.94;69.94
42297;BME280;72430;47.456;19.016;2023-11-18T03:32:24;100402.09;;;4.81;69.75
42297;BME280;72430;47.456;19.016;2023-11-18T03:35:26;100397.22;;;4.88;69.83
42297;BME280;72430;47.456;19.016;2023-11-18T03:38:28;100403.75;;;4.96;68.85
42297;BME280;72430;47.456;19.016;2023-11-18T03:41:30;100410.34;;;4.91;70.00
42297;BME280;72430;47.456;19.016;2023-11-18T03:44:32;100417.34;;;4.79;71.10
42297;BME280;72430;47.456;19.016;2023-11-18T03:47:35;100401.22;;;4.80;70.80
42297;BME280;72430;47.456;19.016;2023-11-18T03:50:37;100404.19;;;4.76;70.43
42297;BME280;72430;47.456;19.016;2023-11-18T03:53:38;100409.53;;;5.03;70.42
42297;BME280;72430;47.456;19.016;2023-11-18T03:56:41;100405.88;;;4.91;69.95
42297;BME280;72430;47.456;19.016;2023-11-18T03:59:43;100411.78;;;4.82;69.93
42297;BME280;72430;47.456;19.016;2023-11-18T04:02:46;100404.13;;;4.90;71.35
42297;BME280;72430;47.456;19.016;2023-11-18T04:05:48;100421.75;;;4.93;70.54
42297;BME280;72430;47.456;19.016;2023-11-18T04:08:50;100426.69;;;4.99;69.57
42297;BME280;72430;47.456;19.016;2023-11-18T04:11:52;100420.69;;;4.95;70.46
42297;BME280;72430;47.456;19.016;2023-11-18T04:14:54;100421.34;;;4.99;69.53
42297;BME280;72430;47.456;19.016;2023-11-18T04:17:56;100426.59;;;5.01;69.60
42297;BME280;72430;47.456;19.016;2023-11-18T04:20:58;100431.09;;;5.00;69.71
42297;BME280;72430;47.456;19.016;2023-11-18T04:24:00;100435.41;;;4.88;70.60
42297;BME280;72430;47.456;19.016;2023-11-18T04:27:02;100439.25;;;5.12;68.92
42297;BME280;72430;47.456;19.016;2023-11-18T04:30:04;100449.41;;;4.92;70.99
42297;BME280;72430;47.456;19.016;2023-11-18T04:33:06;100444.22;;;5.03;69.36
42297;BME280;72430;47.456;19.016;2023-11-18T04:36:09;100472.06;;;4.99;70.24
42297;BME280;72430;47.456;19.016;2023-11-18T04:39:11;100459.66;;;4.98;69.47
42297;BME280;72430;47.456;19.016;2023-11-18T04:42:13;100466.72;;;4.99;70.89
42297;BME280;72430;47.456;19.016;2023-11-18T04:45:16;100464.91;;;5.00;70.79
42297;BME280;72430;47.456;19.016;2023-11-18T04:48:18;100490.34;;;5.05;69.89
42297;BME280;72430;47.456;19.016;2023-11-18T04:51:23;100481.88;;;4.99;70.19
42297;BME280;72430;47.456;19.016;2023-11-18T04:54:24;100480.84;;;5.01;70.83
42297;BME280;72430;47.456;19.016;2023-11-18T04:57:26;100482.28;;;4.92;69.92
42297;BME280;72430;47.456;19.016;2023-11-18T05:00:28;100487.31;;;4.97;69.80
42297;BME280;72430;47.456;19.016;2023-11-18T05:03:30;100486.75;;;4.92;70.27
42297;BME280;72430;47.456;19.016;2023-11-18T05:06:32;100489.97;;;5.12;69.83
42297;BME280;72430;47.456;19.016;2023-11-18T05:09:34;100487.13;;;5.00;70.32
42297;BME280;72430;47.456;19.016;2023-11-18T05:12:37;100488.63;;;5.04;69.71
42297;BME280;72430;47.456;19.016;2023-11-18T05:15:39;100490.44;;;5.04;69.71
42297;BME280;72430;47.456;19.016;2023-11-18T05:18:41;100482.94;;;4.96;69.93
42297;BME280;72430;47.456;19.016;2023-11-18T05:21:43;100491.47;;;5.16;68.77
42297;BME280;72430;47.456;19.016;2023-11-18T05:24:45;100499.19;;;5.20;68.44
42297;BME280;72430;47.456;19.016;2023-11-18T05:27:47;100480.91;;;5.14;68.85
42297;BME280;72430;47.456;19.016;2023-11-18T05:30:50;100476.72;;;4.95;70.66
42297;BME280;72430;47.456;19.016;2023-11-18T05:33:52;100477.38;;;4.99;70.15
42297;BME280;72430;47.456;19.016;2023-11-18T05:36:57;100477.47;;;5.12;69.69
42297;BME280;72430;47.456;19.016;2023-11-18T05:40:01;100485.78;;;5.07;69.78
42297;BME280;72430;47.456;19.016;2023-11-18T05:43:08;100488.78;;;5.16;69.26
42297;BME280;72430;47.456;19.016;2023-11-18T05:46:17;100485.22;;;5.02;69.70
42297;BME280;72430;47.456;19.016;2023-11-18T05:49:24;100491.03;;;4.94;69.71
42297;BME280;72430;47.456;19.016;2023-11-18T05:52:26;100491.03;;;4.94;70.12
42297;BME280;72430;47.456;19.016;2023-11-18T05:55:28;100506.47;;;4.89;70.71
42297;BME280;72430;47.456;19.016;2023-11-18T05:58:30;100500.97;;;4.92;70.59
42297;BME280;72430;47.456;19.016;2023-11-18T06:01:32;100514.09;;;4.95;70.86
42297;BME280;72430;47.456;19.016;2023-11-18T06:04:34;100524.66;;;4.97;69.63
42297;BME280;72430;47.456;19.016;2023-11-18T06:07:36;100531.25;;;4.77;71.15
42297;BME280;72430;47.456;19.016;2023-11-18T06:10:39;100530.03;;;4.82;70.25
42297;BME280;72430;47.456;19.016;2023-11-18T06:13:43;100514.00;;;4.97;69.67
42297;BME280;72430;47.456;19.016;2023-11-18T06:16:47;100528.03;;;4.86;70.91
42297;BME280;72430;47.456;19.016;2023-11-18T06:19:51;100528.03;;;4.86;70.88
42297;BME280;72430;47.456;19.016;2023-11-18T06:22:53;100522.69;;;4.86;70.65
42297;BME280;72430;47.456;19.016;2023-11-18T06:25:55;100525.34;;;4.86;70.89
42297;BME280;72430;47.456;19.016;2023-11-18T06:29:02;100526.75;;;5.06;69.00
42297;BME280;72430;47.456;19.016;2023-11-18T06:32:05;100530.38;;;5.05;70.01
42297;BME280;72430;47.456;19.016;2023-11-18T06:35:07;100542.50;;;4.96;69.72
42297;BME280;72430;47.456;19.016;2023-11-18T06:38:09;100541.25;;;5.02;69.87
42297;BME280;72430;47.456;19.016;2023-11-18T06:41:14;100546.56;;;5.02;69.12
42297;BME280;72430;47.456;19.016;2023-11-18T06:44:18;100535.59;;;5.07;69.27
42297;BME280;72430;47.456;19.016;2023-11-18T06:47:25;100534.16;;;5.16;68.40
42297;BME280;72430;47.456;19.016;2023-11-18T06:50:27;100540.06;;;5.21;69.51
42297;BME280;72430;47.456;19.016;2023-11-18T06:53:29;100542.34;;;5.27;68.02
42297;BME280;72430;47.456;19.016;2023-11-18T06:56:31;100547.50;;;5.30;69.23
42297;BME280;72430;47.456;19.016;2023-11-18T06:59:33;100541.91;;;5.48;68.00
42297;BME280;72430;47.456;19.016;2023-11-18T07:02:36;100542.41;;;5.40;67.84
42297;BME280;72430;47.456;19.016;2023-11-18T07:05:38;100548.47;;;5.57;67.67
42297;BME280;72430;47.456;19.016;2023-11-18T07:08:40;100544.66;;;5.46;67.40
42297;BME280;72430;47.456;19.016;2023-11-18T07:11:43;100535.50;;;5.50;66.43
42297;BME280;72430;47.456;19.016;2023-11-18T07:14:47;100543.91;;;5.44;68.01
42297;BME280;72430;47.456;19.016;2023-11-18T07:17:49;100534.31;;;5.55;66.81
42297;BME280;72430;47.456;19.016;2023-11-18T07:20:59;100540.84;;;5.50;66.16
42297;BME280;72430;47.456;19.016;2023-11-18T07:24:01;100518.13;;;5.58;68.17
42297;BME280;72430;47.456;19.016;2023-11-18T07:27:06;100504.53;;;5.61;65.67
42297;BME280;72430;47.456;19.016;2023-11-18T07:30:08;100510.38;;;5.81;66.23
42297;BME280;72430;47.456;19.016;2023-11-18T07:33:12;100509.53;;;5.80;65.70
42297;BME280;72430;47.456;19.016;2023-11-18T07:36:17;100512.97;;;5.95;65.24
42297;BME280;72430;47.456;19.016;2023-11-18T07:39:21;100514.41;;;6.14;65.03
42297;BME280;72430;47.456;19.016;2023-11-18T07:42:32;100507.91;;;6.18;65.16
42297;BME280;72430;47.456;19.016;2023-11-18T07:45:37;100520.97;;;6.36;63.88
42297;BME280;72430;47.456;19.016;2023-11-18T07:48:39;100527.28;;;6.48;63.24
42297;BME280;72430;47.456;19.016;2023-11-18T07:51:42;100535.31;;;6.48;62.25
42297;BME280;72430;47.456;19.016;2023-11-18T07:54:45;100521.47;;;6.67;62.85
42297;BME280;72430;47.456;19.016;2023-11-18T07:57:47;100529.72;;;6.77;61.97
42297;BME280;72430;47.456;19.016;2023-11-18T08:00:49;100554.09;;;6.72;62.30
42297;BME280;72430;47.456;19.016;2023-11-18T08:03:51;100562.28;;;7.21;61.12
42297;BME280;72430;47.456;19.016;2023-11-18T08:06:54;100559.59;;;7.58;60.18
42297;BME280;72430;47.456;19.016;2023-11-18T08:09:57;100558.22;;;7.77;59.66
42297;BME280;72430;47.456;19.016;2023-11-18T08:12:59;100569.59;;;8.16;58.48
42297;BME280;72430;47.456;19.016;2023-11-18T08:16:01;100567.38;;;8.57;58.00
42297;BME280;72430;47.456;19.016;2023-11-18T08:19:03;100557.41;;;9.05;57.35
42297;BME280;72430;47.456;19.016;2023-11-18T08:22:05;100555.31;;;9.09;56.97
42297;BME280;72430;47.456;19.016;2023-11-18T08:25:07;100555.66;;;9.83;56.16
42297;BME280;72430;47.456;19.016;2023-11-18T08:28:10;100556.94;;;9.56;55.60
42297;BME280;72430;47.456;19.016;2023-11-18T08:31:13;100553.16;;;9.91;53.46
42297;BME280;72430;47.456;19.016;2023-11-18T08:34:19;100555.75;;;10.35;51.59
42297;BME280;72430;47.456;19.016;2023-11-18T08:37:20;100558.06;;;10.92;51.69
42297;BME280;72430;47.456;19.016;2023-11-18T08:40:22;100564.50;;;11.11;51.75
42297;BME280;72430;47.456;19.016;2023-11-18T08:43:24;100562.28;;;11.16;48.72
42297;BME280;72430;47.456;19.016;2023-11-18T08:46:27;100569.50;;;11.25;49.42
42297;BME280;72430;47.456;19.016;2023-11-18T08:49:29;100575.16;;;12.03;49.21
42297;BME280;72430;47.456;19.016;2023-11-18T08:52:35;100589.09;;;11.98;48.07
42297;BME280;72430;47.456;19.016;2023-11-18T08:55:38;100574.41;;;12.70;47.48
42297;BME280;72430;47.456;19.016;2023-11-18T08:58:52;100585.72;;;13.21;44.94
42297;BME280;72430;47.456;19.016;2023-11-18T09:01:56;100584.81;;;13.02;45.12
42297;BME280;72430;47.456;19.016;2023-11-18T09:04:58;100592.41;;;13.55;44.29
42297;BME280;72430;47.456;19.016;2023-11-18T09:08:00;100585.56;;;14.15;43.72
42297;BME280;72430;47.456;19.016;2023-11-18T09:11:09;100590.94;;;14.52;41.73
42297;BME280;72430;47.456;19.016;2023-11-18T09:14:17;100606.06;;;14.00;41.28
42297;BME280;72430;47.456;19.016;2023-11-18T09:17:21;100583.22;;;14.65;39.05
42297;BME280;72430;47.456;19.016;2023-11-18T09:20:24;100582.34;;;15.17;40.05
42297;BME280;72430;47.456;19.016;2023-11-18T09:23:27;100578.38;;;15.38;38.95
42297;BME280;72430;47.456;19.016;2023-11-18T09:26:31;100579.28;;;14.86;40.63
42297;BME280;72430;47.456;19.016;2023-11-18T09:29:32;100560.47;;;15.70;39.84
42297;BME280;72430;47.456;19.016;2023-11-18T09:32:36;100577.00;;;16.19;38.51
42297;BME280;72430;47.456;19.016;2023-11-18T09:35:40;100558.25;;;16.82;36.07
42297;BME280;72430;47.456;19.016;2023-11-18T09:38:42;100570.25;;;17.04;38.33
42297;BME280;72430;47.456;19.016;2023-11-18T09:41:47;100582.34;;;17.42;35.85
42297;BME280;72430;47.456;19.016;2023-11-18T09:44:49;100564.66;;;17.06;35.88
42297;BME280;72430;47.456;19.016;2023-11-18T09:47:52;100609.16;;;15.72;36.34
42297;BME280;72430;47.456;19.016;2023-11-18T09:50:59;100577.16;;;16.01;36.23
42297;BME280;72430;47.456;19.016;2023-11-18T09:54:14;100571.88;;;16.66;35.42
42297;BME280;72430;47.456;19.016;2023-11-18T09:57:31;100570.69;;;16.51;34.65
42297;BME280;72430;47.456;19.016;2023-11-18T10:00:35;100541.22;;;16.88;35.64
42297;BME280;72430;47.456;19.016;2023-11-18T10:03:43;100544.34;;;17.80;34.98
42297;BME280;72430;47.456;19.016;2023-11-18T10:06:48;100546.59;;;17.77;34.51
42297;BME280;72430;47.456;19.016;2023-11-18T10:09:54;100570.00;;;17.86;33.61
42297;BME280;72430;47.456;19.016;2023-11-18T10:12:59;100550.81;;;18.03;32.08
42297;BME280;72430;47.456;19.016;2023-11-18T10:16:01;100558.09;;;18.10;33.90
42297;BME280;72430;47.456;19.016;2023-11-18T10:19:06;100553.06;;;18.22;32.82
42297;BME280;72430;47.456;19.016;2023-11-18T10:22:22;100550.25;;;18.16;31.75
42297;BME280;72430;47.456;19.016;2023-11-18T10:25:25;100545.47;;;19.75;31.93
42297;BME280;72430;47.456;19.016;2023-11-18T10:28:27;100563.03;;;18.99;29.19
42297;BME280;72430;47.456;19.016;2023-11-18T10:31:30;100565.00;;;19.72;30.78
42297;BME280;72430;47.456;19.016;2023-11-18T10:34:34;100551.00;;;19.60;31.08
42297;BME280;72430;47.456;19.016;2023-11-18T10:37:36;100558.13;;;20.20;30.78
42297;BME280;72430;47.456;19.016;2023-11-18T10:40:45;100552.66;;;20.20;30.15
42297;BME280;72430;47.456;19.016;2023-11-18T10:43:48;100557.53;;;19.81;30.30
42297;BME280;72430;47.456;19.016;2023-11-18T10:46:51;100552.81;;;20.40;29.18
42297;BME280;72430;47.456;19.016;2023-11-18T10:49:54;100562.00;;;20.04;29.33
42297;BME280;72430;47.456;19.016;2023-11-18T10:53:02;100567.66;;;19.87;29.99
42297;BME280;72430;47.456;19.016;2023-11-18T10:56:05;100584.63;;;21.47;29.66
42297;BME280;72430;47.456;19.016;2023-11-18T10:59:08;100571.53;;;21.42;27.38
42297;BME280;72430;47.456;19.016;2023-11-18T11:02:19;100579.91;;;20.13;29.58
42297;BME280;72430;47.456;19.016;2023-11-18T11:05:29;100585.16;;;19.93;29.13
42297;BME280;72430;47.456;19.016;2023-11-18T11:08:35;100597.13;;;20.57;28.31
42297;BME280;72430;47.456;19.016;2023-11-18T11:11:47;100598.47;;;20.18;27.88
42297;BME280;72430;47.456;19.016;2023-11-18T11:14:59;100615.50;;;20.92;27.56
42297;BME280;72430;47.456;19.016;2023-11-18T11:18:08;100636.16;;;21.37;26.94
42297;BME280;72430;47.456;19.016;2023-11-18T11:21:14;100610.03;;;21.34;26.41
42297;BME280;72430;47.456;19.016;2023-11-18T11:24:30;100591.28;;;21.31;26.59
42297;BME280;72430;47.456;19.016;2023-11-18T11:27:55;100606.19;;;21.22;26.63
42297;BME280;72430;47.456;19.016;2023-11-18T11:34:19;100594.28;;;22.12;26.51
42297;BME280;72430;47.456;19.016;2023-11-18T11:37:25;100605.47;;;22.31;25.94
42297;BME280;72430;47.456;19.016;2023-11-18T11:40:30;100647.97;;;21.79;24.77
42297;BME280;72430;47.456;19.016;2023-11-18T11:43:34;100637.28;;;23.33;24.09
42297;BME280;72430;47.456;19.016;2023-11-18T11:46:36;100642.38;;;22.08;25.39
42297;BME280;72430;47.456;19.016;2023-11-18T11:49:48;100663.47;;;23.29;24.04
42297;BME280;72430;47.456;19.016;2023-11-18T11:53:05;100664.13;;;22.50;24.42
42297;BME280;72430;47.456;19.016;2023-11-18T11:56:11;100665.16;;;20.89;26.30
42297;BME280;72430;47.456;19.016;2023-11-18T11:59:16;100668.59;;;19.58;27.13
42297;BME280;72430;47.456;19.016;2023-11-18T12:02:21;100679.94;;;20.73;27.57
42297;BME280;72430;47.456;19.016;2023-11-18T12:05:27;100685.41;;;22.14;25.13
42297;BME280;72430;47.456;19.016;2023-11-18T12:08:29;100703.44;;;20.67;25.76
42297;BME280;72430;47.456;19.016;2023-11-18T12:11:38;100694.28;;;17.30;29.29
42297;BME280;72430;47.456;19.016;2023-11-18T12:14:54;100690.78;;;17.05;30.17
42297;BME280;72430;47.456;19.016;2023-11-18T12:18:21;100711.41;;;15.63;32.79
42297;BME280;72430;47.456;19.016;2023-11-18T12:21:53;100711.88;;;14.25;33.98
42297;BME280;72430;47.456;19.016;2023-11-18T12:28:07;100701.94;;;16.10;32.71
42297;BME280;72430;47.456;19.016;2023-11-18T12:31:09;100704.84;;;15.13;34.17
42297;BME280;72430;47.456;19.016;2023-11-18T12:34:19;100699.09;;;14.53;33.73
42297;BME280;72430;47.456;19.016;2023-11-18T12:48:14;100675.19;;;11.60;39.23
42297;BME280;72430;47.456;19.016;2023-11-18T12:51:17;100685.88;;;12.62;38.08
42297;BME280;72430;47.456;19.016;2023-11-18T12:54:23;100688.91;;;11.47;39.31
42297;BME280;72430;47.456;19.016;2023-11-18T12:57:29;100698.47;;;13.01;38.49
42297;BME280;72430;47.456;19.016;2023-11-18T13:00:33;100707.56;;;15.13;35.57
42297;BME280;72430;47.456;19.016;2023-11-18T13:03:37;100717.63;;;13.18;36.86
42297;BME280;72430;47.456;19.016;2023-11-18T13:06:39;100727.13;;;13.32;36.65
42297;BME280;72430;47.456;19.016;2023-11-18T13:09:44;100721.41;;;13.35;36.22
42297;BME280;72430;47.456;19.016;2023-11-18T13:12:47;100732.13;;;13.74;36.05
42297;BME280;72430;47.456;19.016;2023-11-18T13:15:51;100727.94;;;12.45;37.87
42297;BME280;72430;47.456;19.016;2023-11-18T13:18:53;100731.47;;;11.44;39.90
42297;BME280;72430;47.456;19.016;2023-11-18T13:21:58;100736.56;;;12.19;38.86
42297;BME280;72430;47.456;19.016;2023-11-18T13:25:01;100736.31;;;12.81;38.88
42297;BME280;72430;47.456;19.016;2023-11-18T13:28:08;100723.13;;;13.36;39.14
42297;BME280;72430;47.456;19.016;2023-11-18T13:31:14;100741.97;;;13.08;38.36
42297;BME280;72430;47.456;19.016;2023-11-18T13:34:19;100747.34;;;12.19;38.64
42297;BME280;72430;47.456;19.016;2023-11-18T13:37:22;100755.16;;;11.81;39.96
42297;BME280;72430;47.456;19.016;2023-11-18T13:40:25;100765.25;;;11.79;39.31
42297;BME280;72430;47.456;19.016;2023-11-18T13:43:26;100760.56;;;11.19;40.91
42297;BME280;72430;47.456;19.016;2023-11-18T13:46:28;100768.63;;;10.43;43.32
42297;BME280;72430;47.456;19.016;2023-11-18T13:49:33;100765.91;;;10.43;42.44
42297;BME280;72430;47.456;19.016;2023-11-18T13:52:36;100776.31;;;10.25;42.46
42297;BME280;72430;47.456;19.016;2023-11-18T13:55:40;100776.25;;;10.04;43.59
42297;BME280;72430;47.456;19.016;2023-11-18T13:58:43;100776.25;;;9.58;44.86
42297;BME280;72430;47.456;19.016;2023-11-18T14:01:47;100771.44;;;9.27;46.26
42297;BME280;72430;47.456;19.016;2023-11-18T14:04:50;100772.22;;;9.52;45.91
42297;BME280;72430;47.456;19.016;2023-11-18T14:07:57;100786.88;;;9.60;44.03
42297;BME280;72430;47.456;19.016;2023-11-18T14:11:07;100787.09;;;9.57;44.06
42297;BME280;72430;47.456;19.016;2023-11-18T14:14:17;100787.72;;;9.37;46.10
42297;BME280;72430;47.456;19.016;2023-11-18T14:17:19;100788.91;;;9.33;45.84
42297;BME280;72430;47.456;19.016;2023-11-18T14:20:21;100794.63;;;8.81;46.62
42297;BME280;72430;47.456;19.016;2023-11-18T14:23:24;100790.31;;;9.03;45.37
42297;BME280;72430;47.456;19.016;2023-11-18T14:26:26;100799.38;;;8.78;45.71
42297;BME280;72430;47.456;19.016;2023-11-18T14:29:29;100790.03;;;8.46;46.96
42297;BME280;72430;47.456;19.016;2023-11-18T14:32:31;100794.28;;;8.24;48.80
42297;BME280;72430;47.456;19.016;2023-11-18T14:35:33;100789.72;;;8.13;49.41
42297;BME280;72430;47.456;19.016;2023-11-18T14:38:35;100798.47;;;8.15;47.89
42297;BME280;72430;47.456;19.016;2023-11-18T14:41:38;100817.56;;;8.24;47.05
42297;BME280;72430;47.456;19.016;2023-11-18T14:44:40;100816.50;;;8.26;47.82
42297;BME280;72430;47.456;19.016;2023-11-18T14:47:44;100809.91;;;8.06;48.36
42297;BME280;72430;47.456;19.016;2023-11-18T14:50:57;100814.00;;;7.86;48.58
42297;BME280;72430;47.456;19.016;2023-11-18T14:53:59;100816.03;;;7.82;48.61
42297;BME280;72430;47.456;19.016;2023-11-18T14:57:01;100812.72;;;7.78;49.00
42297;BME280;72430;47.456;19.016;2023-11-18T15:00:05;100829.22;;;7.59;49.94
42297;BME280;72430;47.456;19.016;2023-11-18T15:03:20;100828.78;;;7.52;49.86
42297;BME280;72430;47.456;19.016;2023-11-18T15:06:26;100836.09;;;7.50;48.89
42297;BME280;72430;47.456;19.016;2023-11-18T15:09:28;100827.63;;;7.31;49.80
42297;BME280;72430;47.456;19.016;2023-11-18T15:12:33;100835.97;;;7.39;49.15
42297;BME280;72430;47.456;19.016;2023-11-18T15:15:36;100834.31;;;7.10;49.74
42297;BME280;72430;47.456;19.016;2023-11-18T15:18:37;100831.69;;;6.96;49.92
42297;BME280;72430;47.456;19.016;2023-11-18T15:21:40;100841.19;;;6.74;51.71
42297;BME280;72430;47.456;19.016;2023-11-18T15:24:41;100824.91;;;6.77;51.79
42297;BME280;72430;47.456;19.016;2023-11-18T15:27:44;100836.06;;;6.84;50.77
42297;BME280;72430;47.456;19.016;2023-11-18T15:30:47;100854.75;;;6.71;51.15
42297;BME280;72430;47.456;19.016;2023-11-18T15:33:53;100850.81;;;6.77;51.36
42297;BME280;72430;47.456;19.016;2023-11-18T15:36:54;100853.22;;;6.67;51.93
42297;BME280;72430;47.456;19.016;2023-11-18T15:39:56;100867.47;;;6.67;51.19
42297;BME280;72430;47.456;19.016;2023-11-18T15:42:58;100868.88;;;6.31;53.47
42297;BME280;72430;47.456;19.016;2023-11-18T15:46:01;100868.28;;;6.55;51.53
42297;BME280;72430;47.456;19.016;2023-11-18T15:49:03;100872.91;;;6.66;51.21
42297;BME280;72430;47.456;19.016;2023-11-18T15:52:05;100861.13;;;6.41;52.10
42297;BME280;72430;47.456;19.016;2023-11-18T15:55:09;100863.59;;;6.44;51.91
42297;BME280;72430;47.456;19.016;2023-11-18T15:58:11;100870.47;;;6.48;52.57
42297;BME280;72430;47.456;19.016;2023-11-18T16:01:15;100860.63;;;6.49;51.90
42297;BME280;72430;47.456;19.016;2023-11-18T16:04:17;100860.81;;;6.45;51.62
42297;BME280;72430;47.456;19.016;2023-11-18T16:07:19;100874.63;;;6.25;52.90
42297;BME280;72430;47.456;19.016;2023-11-18T16:10:25;100883.75;;;6.35;53.16
42297;BME280;72430;47.456;19.016;2023-11-18T16:13:27;100884.53;;;6.37;53.04
42297;BME280;72430;47.456;19.016;2023-11-18T16:16:29;100884.31;;;6.40;52.22
42297;BME280;72430;47.456;19.016;2023-11-18T16:19:31;100890.47;;;6.42;51.81